Time;durP1;ratioP1;P1;durP2;ratioP2;P2;SDS_P1;SDS_P2;PMS_P1;PMS_P2;Temp;Humidity;BMP_temperature;BMP_pressure;BME280_temperature;BME280_humidity;BME280_pressure;Samples;Min_cycle;Max_cycle;Signal;HPM_P1;HPM_P2
2024/02/25 00:01:36;;;;;;;5.28;4.43;;;;;;;;;;5013959;28;20404;-91
2024/02/25 00:04:04;;;;;;;3.70;3.40;;;;;;;;;;5002206;28;20053;-91
2024/02/25 00:06:31;;;;;;;5.05;3.90;;;;;;;;;;4998030;28;20050;-91
2024/02/25 00:08:58;;;;;;;4.35;3.30;;;;;;;;;;5017330;28;20056;-92
2024/02/25 00:11:26;;;;;;;3.45;3.13;;;;;;;;;;5009117;28;20049;-91
2024/02/25 00:13:53;;;;;;;3.97;3.00;;;;;;;;;;5009822;28;20054;-91
2024/02/25 00:16:21;;;;;;;2.60;2.20;;;;;;;;;;5013899;28;20494;-91
2024/02/25 00:18:49;;;;;;;2.20;2.00;;;;;;;;;;5005467;28;20061;-91
2024/02/25 00:21:16;;;;;;;2.55;2.20;;;;;;;;;;5012166;28;20073;-91
2024/02/25 00:23:43;;;;;;;2.03;1.90;;;;;;;;;;5005550;28;20101;-91
2024/02/25 00:26:11;;;;;;;4.13;2.00;;;;;;;;;;5005348;28;20050;-91
2024/02/25 00:28:38;;;;;;;3.28;2.85;;;;;;;;;;5005331;28;20057;-91
2024/02/25 00:31:05;;;;;;;2.08;1.98;;;;;;;;;;5005350;28;20430;-91
2024/02/25 00:33:33;;;;;;;1.98;1.83;;;;;;;;;;5008393;28;20056;-91
2024/02/25 00:36:01;;;;;;;14.13;8.48;;;;;;;;;;5008786;28;20045;-91
2024/02/25 00:38:28;;;;;;;14.10;8.38;;;;;;;;;;5008361;28;20136;-91
2024/02/25 00:40:55;;;;;;;7.05;3.97;;;;;;;;;;5008962;28;20069;-91
2024/02/25 00:43:28;;;;;;;3.80;3.50;;;;;;;;;;5005253;28;20582;-91
2024/02/25 00:45:55;;;;;;;5.10;2.85;;;;;;;;;;5005250;28;20155;-91
2024/02/25 00:48:22;;;;;;;14.00;8.60;;;;;;;;;;5004997;28;20108;-91
2024/02/25 00:50:50;;;;;;;6.13;3.85;;;;;;;;;;5011692;28;20061;-92
2024/02/25 00:53:17;;;;;;;3.75;3.25;;;;;;;;;;5008678;28;20046;-91
2024/02/25 00:55:44;;;;;;;3.75;2.80;;;;;;;;;;5016798;28;20548;-91
2024/02/25 00:58:12;;;;;;;3.05;1.83;;;;;;;;;;5008306;28;20053;-91
2024/02/25 01:00:39;;;;;;;3.38;1.92;;;;;;;;;;5019038;28;20395;-92
2024/02/25 01:03:06;;;;;;;3.38;1.83;;;;;;;;;;5024419;28;20050;-89
2024/02/25 01:05:34;;;;;;;2.97;1.90;;;;;;;;;;5014654;28;20049;-91
2024/02/25 01:08:02;;;;;;;2.03;1.83;;;;;;;;;;5003845;28;20045;-91
2024/02/25 01:10:29;;;;;;;1.77;1.67;;;;;;;;;;4997320;28;20058;-91
2024/02/25 01:12:56;;;;;;;2.35;1.60;;;;;;;;;;5015718;28;20045;-91
2024/02/25 01:15:23;;;;;;;3.42;1.85;;;;;;;;;;5016268;28;20084;-92
2024/02/25 01:17:50;;;;;;;1.98;1.80;;;;;;;;;;5009501;28;20068;-92
2024/02/25 01:20:18;;;;;;;2.97;1.98;;;;;;;;;;5012592;28;20049;-91
2024/02/25 01:22:45;;;;;;;1.88;1.77;;;;;;;;;;5004609;28;20046;-90
2024/02/25 01:25:12;;;;;;;3.03;1.67;;;;;;;;;;5014343;28;20046;-92
2024/02/25 01:27:40;;;;;;;2.08;1.75;;;;;;;;;;5007263;28;20057;-92
2024/02/25 01:30:10;;;;;;;1.70;1.60;;;;;;;;;;5006653;28;20103;-92
2024/02/25 01:32:37;;;;;;;2.38;2.00;;;;;;;;;;5005889;28;20042;-92
2024/02/25 01:35:05;;;;;;;4.88;1.90;;;;;;;;;;5004756;28;20050;-93
2024/02/25 01:37:33;;;;;;;2.45;1.63;;;;;;;;;;5007897;28;20054;-93
2024/02/25 01:40:01;;;;;;;2.08;1.83;;;;;;;;;;5007846;28;20551;-93
2024/02/25 01:42:29;;;;;;;1.70;1.60;;;;;;;;;;5004263;28;20046;-92
2024/02/25 01:45:00;;;;;;;2.47;1.52;;;;;;;;;;5004451;28;20045;-93
2024/02/25 01:47:29;;;;;;;2.17;1.67;;;;;;;;;;5004401;28;20050;-93
2024/02/25 01:49:56;;;;;;;4.18;1.85;;;;;;;;;;5004706;28;20501;-92
2024/02/25 01:52:24;;;;;;;1.67;1.50;;;;;;;;;;5007201;28;20060;-93
2024/02/25 01:54:51;;;;;;;1.70;1.60;;;;;;;;;;5007808;28;20053;-92
2024/02/25 01:57:19;;;;;;;2.35;2.15;;;;;;;;;;5008185;28;20058;-92
2024/02/25 01:59:46;;;;;;;3.35;1.77;;;;;;;;;;5009909;28;20053;-92
2024/02/25 02:02:14;;;;;;;3.38;1.77;;;;;;;;;;5004065;28;20046;-92
2024/02/25 02:04:42;;;;;;;2.17;2.00;;;;;;;;;;5004479;28;20505;-92
2024/02/25 02:07:10;;;;;;;3.08;1.98;;;;;;;;;;5015558;28;20049;-92
2024/02/25 02:09:41;;;;;;;1.70;1.60;;;;;;;;;;5007756;28;20087;-92
2024/02/25 02:12:23;;;;;;;1.60;1.33;;;;;;;;;;5017121;28;20064;-92
2024/02/25 02:14:52;;;;;;;1.77;1.67;;;;;;;;;;5021433;28;20180;-93
2024/02/25 02:17:21;;;;;;;2.40;1.58;;;;;;;;;;5026599;28;20049;-92
2024/02/25 02:19:49;;;;;;;2.53;1.70;;;;;;;;;;5015183;28;20060;-92
2024/02/25 02:22:17;;;;;;;1.42;1.33;;;;;;;;;;5017889;28;20136;-92
2024/02/25 02:24:44;;;;;;;1.88;1.42;;;;;;;;;;5011081;28;20061;-93
2024/02/25 02:27:11;;;;;;;2.13;1.48;;;;;;;;;;5011297;28;20490;-92
2024/02/25 02:29:39;;;;;;;2.40;1.45;;;;;;;;;;5002414;28;20128;-93
2024/02/25 02:32:06;;;;;;;1.50;1.40;;;;;;;;;;5004446;28;20096;-93
2024/02/25 02:34:35;;;;;;;2.00;1.75;;;;;;;;;;5015088;28;20057;-92
2024/02/25 02:37:02;;;;;;;2.22;1.58;;;;;;;;;;5007700;28;20054;-92
2024/02/25 02:39:30;;;;;;;2.03;1.70;;;;;;;;;;5015855;28;20050;-93
2024/02/25 02:41:57;;;;;;;2.03;1.33;;;;;;;;;;5008320;28;20053;-93
2024/02/25 02:44:24;;;;;;;2.28;1.70;;;;;;;;;;5004706;28;20514;-92
2024/02/25 02:46:52;;;;;;;1.98;1.70;;;;;;;;;;5007254;28;20538;-92
2024/02/25 02:49:19;;;;;;;4.00;1.80;;;;;;;;;;5006422;28;20050;-92
2024/02/25 02:51:47;;;;;;;1.50;1.40;;;;;;;;;;5001641;28;20467;-93
2024/02/25 02:54:14;;;;;;;1.45;1.35;;;;;;;;;;5005136;28;20055;-92
2024/02/25 02:56:41;;;;;;;3.65;1.92;;;;;;;;;;5007395;28;20054;-93
2024/02/25 02:59:09;;;;;;;2.03;1.58;;;;;;;;;;5006276;28;20053;-93
2024/02/25 03:01:36;;;;;;;1.38;1.27;;;;;;;;;;5003859;28;20054;-92
2024/02/25 03:04:04;;;;;;;1.38;1.27;;;;;;;;;;5003949;28;20454;-92
2024/02/25 03:06:31;;;;;;;1.42;1.33;;;;;;;;;;5011447;28;20062;-92
2024/02/25 03:08:59;;;;;;;1.75;1.33;;;;;;;;;;5011167;28;20204;-93
2024/02/25 03:11:26;;;;;;;1.77;1.63;;;;;;;;;;5006967;28;20049;-93
2024/02/25 03:13:53;;;;;;;2.90;1.40;;;;;;;;;;5006531;28;20049;-92
2024/02/25 03:16:20;;;;;;;2.75;1.75;;;;;;;;;;5004654;28;20050;-92
2024/02/25 03:18:48;;;;;;;1.88;1.63;;;;;;;;;;5003196;28;20054;-92
2024/02/25 03:21:15;;;;;;;3.17;1.52;;;;;;;;;;5005020;28;20050;-92
2024/02/25 03:23:42;;;;;;;2.42;1.50;;;;;;;;;;5011384;28;20058;-92
2024/02/25 03:26:13;;;;;;;1.50;1.40;;;;;;;;;;5000974;28;20059;-92
2024/02/25 03:28:41;;;;;;;1.83;1.65;;;;;;;;;;4997509;28;20047;-91
2024/02/25 03:31:08;;;;;;;1.92;1.40;;;;;;;;;;5031621;28;20054;-92
2024/02/25 03:33:36;;;;;;;2.58;1.73;;;;;;;;;;5018280;28;20102;-91
2024/02/25 03:36:03;;;;;;;2.40;1.80;;;;;;;;;;5002847;28;20057;-91
2024/02/25 03:38:30;;;;;;;1.15;1.05;;;;;;;;;;5006680;28;20482;-91
2024/02/25 03:40:58;;;;;;;1.77;1.08;;;;;;;;;;5007352;28;20054;-91
2024/02/25 03:43:25;;;;;;;1.88;1.73;;;;;;;;;;5014043;28;20053;-91
2024/02/25 03:45:52;;;;;;;2.03;1.70;;;;;;;;;;5006478;28;20464;-91
2024/02/25 03:48:19;;;;;;;2.30;2.10;;;;;;;;;;5006144;28;20100;-91
2024/02/25 03:50:47;;;;;;;1.52;1.40;;;;;;;;;;5008514;28;20109;-91
2024/02/25 03:53:14;;;;;;;1.70;1.55;;;;;;;;;;5012441;28;20050;-91
2024/02/25 03:55:41;;;;;;;4.68;3.97;;;;;;;;;;5009206;28;20054;-91
2024/02/25 03:58:08;;;;;;;2.90;2.60;;;;;;;;;;5003398;28;20046;-91
2024/02/25 04:00:36;;;;;;;3.47;1.70;;;;;;;;;;5005919;28;20144;-91
2024/02/25 04:03:03;;;;;;;1.80;1.70;;;;;;;;;;5013761;28;20054;-91
2024/02/25 04:05:30;;;;;;;1.88;1.70;;;;;;;;;;5006000;28;20499;-91
2024/02/25 04:07:58;;;;;;;2.22;2.03;;;;;;;;;;5005626;28;20074;-91
2024/02/25 04:10:25;;;;;;;2.05;1.90;;;;;;;;;;5005844;28;20120;-91
2024/02/25 04:12:52;;;;;;;4.20;2.10;;;;;;;;;;5006952;28;20046;-91
2024/02/25 04:15:20;;;;;;;1.63;1.52;;;;;;;;;;5004192;28;20054;-90
2024/02/25 04:17:48;;;;;;;1.83;1.67;;;;;;;;;;5007593;28;20058;-90
2024/02/25 04:20:16;;;;;;;1.50;1.40;;;;;;;;;;5010432;28;20063;-90
2024/02/25 04:22:44;;;;;;;1.70;1.55;;;;;;;;;;5002090;28;20051;-90
2024/02/25 04:25:11;;;;;;;2.28;1.40;;;;;;;;;;5003157;28;20134;-90
2024/02/25 04:27:38;;;;;;;1.30;1.23;;;;;;;;;;5005216;28;20096;-90
2024/02/25 04:30:06;;;;;;;1.15;0.95;;;;;;;;;;5004685;28;20052;-91
2024/02/25 04:32:39;;;;;;;1.40;1.30;;;;;;;;;;5002972;28;20050;-90
2024/02/25 04:35:06;;;;;;;;;;;;;;;;;;4997648;28;20058;-91
2024/02/25 04:37:34;;;;;;;1.50;1.30;;;;;;;;;;5025556;28;20000;-91
2024/02/25 04:40:01;;;;;;;1.33;1.23;;;;;;;;;;5010123;28;20076;-91
2024/02/25 04:42:28;;;;;;;1.10;1.08;;;;;;;;;;5010063;28;20077;-91
2024/02/25 04:44:56;;;;;;;1.35;1.25;;;;;;;;;;5017059;28;20049;-91
2024/02/25 04:47:23;;;;;;;0.90;0.75;;;;;;;;;;5023155;28;20137;-91
2024/02/25 04:49:51;;;;;;;1.85;1.08;;;;;;;;;;5001720;28;20050;-91
2024/02/25 04:52:20;;;;;;;1.45;1.13;;;;;;;;;;5003847;28;20108;-91
2024/02/25 04:54:48;;;;;;;1.63;0.90;;;;;;;;;;5009588;28;20541;-91
2024/02/25 04:57:16;;;;;;;1.15;1.10;;;;;;;;;;5001679;28;20411;-91
2024/02/25 04:59:43;;;;;;;1.13;1.02;;;;;;;;;;5006975;28;20077;-91
2024/02/25 05:02:10;;;;;;;1.10;1.10;;;;;;;;;;4994630;28;20046;-90
2024/02/25 05:04:39;;;;;;;1.05;1.05;;;;;;;;;;5004756;28;20056;-91
2024/02/25 05:07:06;;;;;;;1.00;1.00;;;;;;;;;;5004157;28;20050;-91
2024/02/25 05:09:34;;;;;;;2.05;1.40;;;;;;;;;;5001629;28;20410;-91
2024/02/25 05:12:01;;;;;;;1.13;1.10;;;;;;;;;;5001549;28;20077;-91
2024/02/25 05:14:29;;;;;;;1.50;1.25;;;;;;;;;;5001308;28;20046;-91
2024/02/25 05:16:57;;;;;;;1.23;1.15;;;;;;;;;;4997012;28;20046;-92
2024/02/25 05:19:24;;;;;;;1.25;1.05;;;;;;;;;;5009336;28;20061;-91
2024/02/25 05:21:53;;;;;;;1.35;1.20;;;;;;;;;;5004585;28;20054;-91
2024/02/25 05:24:21;;;;;;;1.20;1.10;;;;;;;;;;5000217;28;20054;-91
2024/02/25 05:26:49;;;;;;;1.60;1.27;;;;;;;;;;4995786;28;20085;-91
2024/02/25 05:29:16;;;;;;;3.80;1.25;;;;;;;;;;5017286;28;20068;-90
2024/02/25 05:31:44;;;;;;;1.33;0.98;;;;;;;;;;5004695;28;20077;-92
2024/02/25 05:34:12;;;;;;;1.98;1.20;;;;;;;;;;5012625;28;20050;-92
2024/02/25 05:36:40;;;;;;;2.58;1.25;;;;;;;;;;5004338;28;20057;-92
2024/02/25 05:39:08;;;;;;;1.02;0.90;;;;;;;;;;5004059;28;20050;-91
2024/02/25 05:41:36;;;;;;;1.40;1.30;;;;;;;;;;5001435;28;20054;-92
2024/02/25 05:44:03;;;;;;;1.20;1.17;;;;;;;;;;5010022;28;20144;-91
2024/02/25 05:46:31;;;;;;;3.92;1.38;;;;;;;;;;5005642;28;20050;-92
2024/02/25 05:48:58;;;;;;;1.17;1.08;;;;;;;;;;5013441;28;20470;-92
2024/02/25 05:51:26;;;;;;;1.65;1.48;;;;;;;;;;5005556;28;20042;-92
2024/02/25 05:53:54;;;;;;;1.30;1.20;;;;;;;;;;5007632;28;20073;-92
2024/02/25 05:56:21;;;;;;;1.52;1.42;;;;;;;;;;5006930;28;20110;-92
2024/02/25 05:58:49;;;;;;;1.45;1.33;;;;;;;;;;5014533;28;20057;-92
2024/02/25 06:01:17;;;;;;;1.30;1.20;;;;;;;;;;5028530;28;20038;-91
2024/02/25 06:03:47;;;;;;;1.50;1.40;;;;;;;;;;5019698;28;20046;-92
2024/02/25 06:06:14;;;;;;;1.30;1.20;;;;;;;;;;5007447;28;20061;-92
2024/02/25 06:08:43;;;;;;;2.08;1.48;;;;;;;;;;5006982;28;20089;-92
2024/02/25 06:11:10;;;;;;;1.30;1.20;;;;;;;;;;5008523;28;20057;-92
2024/02/25 06:13:38;;;;;;;2.08;1.40;;;;;;;;;;5011379;28;20054;-92
2024/02/25 06:16:06;;;;;;;2.05;1.63;;;;;;;;;;5019689;28;20056;-92
2024/02/25 06:18:33;;;;;;;1.30;1.20;;;;;;;;;;5010643;28;20056;-92
2024/02/25 06:21:02;;;;;;;3.72;1.50;;;;;;;;;;5003495;28;20050;-92
2024/02/25 06:23:30;;;;;;;3.75;1.45;;;;;;;;;;5027652;28;20080;-92
2024/02/25 06:25:57;;;;;;;2.17;1.80;;;;;;;;;;5019288;28;20200;-92
2024/02/25 06:28:26;;;;;;;1.10;1.08;;;;;;;;;;5008487;28;20058;-92
2024/02/25 06:30:56;;;;;;;1.75;1.58;;;;;;;;;;5007355;28;20057;-92
2024/02/25 06:33:24;;;;;;;2.15;1.98;;;;;;;;;;5008223;28;20058;-92
2024/02/25 06:35:53;;;;;;;7.53;1.50;;;;;;;;;;5008266;28;20073;-92
2024/02/25 06:38:20;;;;;;;2.00;1.90;;;;;;;;;;5009867;28;20054;-92
2024/02/25 06:40:48;;;;;;;2.25;1.83;;;;;;;;;;5012214;28;20108;-92
2024/02/25 06:43:15;;;;;;;2.33;2.15;;;;;;;;;;5004277;28;20081;-93
2024/02/25 06:45:43;;;;;;;3.55;2.70;;;;;;;;;;5011977;28;20104;-93
2024/02/25 06:48:10;;;;;;;2.67;2.47;;;;;;;;;;5011978;28;20060;-92
2024/02/25 06:50:38;;;;;;;2.78;2.50;;;;;;;;;;4999163;28;20538;-93
2024/02/25 06:53:06;;;;;;;3.58;2.58;;;;;;;;;;5010061;28;20065;-92
2024/02/25 06:55:36;;;;;;;3.45;2.40;;;;;;;;;;5016949;28;20054;-92
2024/02/25 06:58:04;;;;;;;20.45;14.23;;;;;;;;;;5015314;28;20053;-93
2024/02/25 07:00:35;;;;;;;23.60;14.70;;;;;;;;;;5020080;28;20506;-93
2024/02/25 07:03:04;;;;;;;84.75;42.22;;;;;;;;;;5010751;28;20050;-93
2024/02/25 07:05:32;;;;;;;41.55;19.90;;;;;;;;;;5019824;28;20056;-92
2024/02/25 07:08:00;;;;;;;24.55;12.35;;;;;;;;;;5010467;28;20042;-92
2024/02/25 07:10:28;;;;;;;172.65;77.13;;;;;;;;;;5011837;28;20061;-93
2024/02/25 07:12:59;;;;;;;54.63;24.00;;;;;;;;;;5019133;28;20057;-92
2024/02/25 07:15:26;;;;;;;87.55;36.70;;;;;;;;;;5017219;28;20124;-93
2024/02/25 07:17:54;;;;;;;13.23;8.13;;;;;;;;;;5030610;28;20046;-92
2024/02/25 07:20:21;;;;;;;39.35;22.33;;;;;;;;;;5004597;28;20058;-93
2024/02/25 07:22:49;;;;;;;51.17;33.20;;;;;;;;;;4999112;28;20392;-92
2024/02/25 07:25:17;;;;;;;7.25;6.28;;;;;;;;;;5008170;28;20058;-92
2024/02/25 07:27:44;;;;;;;2.95;2.72;;;;;;;;;;5008279;28;20054;-93
2024/02/25 07:30:16;;;;;;;2.75;2.55;;;;;;;;;;5006494;28;20060;-93
2024/02/25 07:32:44;;;;;;;4.47;4.07;;;;;;;;;;5010359;28;20065;-93
2024/02/25 07:35:11;;;;;;;3.33;3.05;;;;;;;;;;5016939;28;20054;-93
2024/02/25 07:37:43;;;;;;;3.20;2.90;;;;;;;;;;5012509;28;20058;-93
2024/02/25 07:40:11;;;;;;;7.90;3.63;;;;;;;;;;5008911;28;20227;-93
2024/02/25 07:42:39;;;;;;;3.20;2.60;;;;;;;;;;5011196;28;20568;-93
2024/02/25 07:45:07;;;;;;;4.00;3.13;;;;;;;;;;5018651;28;20056;-93
2024/02/25 07:47:35;;;;;;;3.53;3.22;;;;;;;;;;5014282;28;20493;-93
2024/02/25 07:50:02;;;;;;;3.15;2.83;;;;;;;;;;5013449;28;20061;-92
2024/02/25 07:52:29;;;;;;;3.35;3.05;;;;;;;;;;5004713;28;20054;-93
2024/02/25 07:54:57;;;;;;;2.85;2.65;;;;;;;;;;5003648;28;20624;-94
2024/02/25 07:57:27;;;;;;;3.42;3.13;;;;;;;;;;5003594;28;20057;-93
2024/02/25 07:59:54;;;;;;;4.30;2.90;;;;;;;;;;5003353;28;20050;-92
2024/02/25 08:02:22;;;;;;;3.95;3.53;;;;;;;;;;5005625;28;20497;-92
2024/02/25 08:04:49;;;;;;;6.50;4.22;;;;;;;;;;5006302;28;20128;-92
2024/02/25 08:07:16;;;;;;;61.65;11.98;;;;;;;;;;5004344;28;20509;-91
2024/02/25 08:09:44;;;;;;;422.75;49.72;;;;;;;;;;5002631;28;20491;-91
2024/02/25 08:12:11;;;;;;;639.03;102.78;;;;;;;;;;5010017;28;20058;-92
2024/02/25 08:14:39;;;;;;;1999.90;638.17;;;;;;;;;;5009788;28;20057;-91
2024/02/25 08:17:07;;;;;;;4.68;4.30;;;;;;;;;;5011249;28;20096;-91
2024/02/25 08:19:35;;;;;;;5.38;3.45;;;;;;;;;;5005835;28;20050;-91
2024/02/25 08:22:02;;;;;;;4.15;3.53;;;;;;;;;;5013294;28;20061;-92
2024/02/25 08:24:31;;;;;;;2.63;2.35;;;;;;;;;;5002668;28;20074;-92
2024/02/25 08:26:58;;;;;;;3.20;1.67;;;;;;;;;;5002708;28;20416;-92
2024/02/25 08:29:26;;;;;;;3.10;1.65;;;;;;;;;;5010637;28;20065;-93
2024/02/25 08:31:53;;;;;;;1.70;1.60;;;;;;;;;;5024943;28;20034;-91
2024/02/25 08:34:20;;;;;;;1.20;1.10;;;;;;;;;;5014396;28;20081;-92
2024/02/25 08:36:48;;;;;;;2.17;1.35;;;;;;;;;;5008235;28;20414;-91
2024/02/25 08:39:17;;;;;;;1.20;1.10;;;;;;;;;;5013606;28;20116;-91
2024/02/25 08:41:44;;;;;;;0.90;0.90;;;;;;;;;;5008006;28;20054;-91
2024/02/25 08:44:12;;;;;;;1.00;1.00;;;;;;;;;;5010315;28;20045;-91
2024/02/25 08:46:39;;;;;;;2.22;1.00;;;;;;;;;;5003372;28;20050;-91
2024/02/25 08:49:06;;;;;;;1.33;0.90;;;;;;;;;;4998843;28;20082;-89
2024/02/25 08:51:36;;;;;;;27.17;21.88;;;;;;;;;;4994383;28;20047;-90
2024/02/25 08:54:04;;;;;;;27.25;24.48;;;;;;;;;;5013237;28;20054;-90
2024/02/25 08:56:32;;;;;;;4.10;3.90;;;;;;;;;;5005019;28;20050;-88
2024/02/25 08:58:59;;;;;;;2.65;2.10;;;;;;;;;;4997596;28;20046;-90
2024/02/25 09:01:27;;;;;;;8.82;8.13;;;;;;;;;;5004620;28;20049;-89
2024/02/25 09:03:54;;;;;;;2.83;2.55;;;;;;;;;;5006216;28;20089;-90
2024/02/25 09:06:24;;;;;;;118.07;85.60;;;;;;;;;;5009833;28;20061;-87
2024/02/25 09:08:52;;;;;;;6.00;5.10;;;;;;;;;;5001452;28;20053;-88
2024/02/25 09:11:19;;;;;;;1.10;1.10;;;;;;;;;;5008488;28;20459;-87
2024/02/25 09:13:50;;;;;;;1.65;1.55;;;;;;;;;;5001476;28;20051;-87
2024/02/25 09:16:18;;;;;;;1.20;1.20;;;;;;;;;;5002958;28;20057;-87
2024/02/25 09:18:45;;;;;;;1.52;1.52;;;;;;;;;;5004611;28;20049;-90
2024/02/25 09:21:12;;;;;;;1.35;1.25;;;;;;;;;;5004946;28;20058;-90
2024/02/25 09:23:40;;;;;;;2.65;1.90;;;;;;;;;;5007906;28;20053;-90
2024/02/25 09:26:07;;;;;;;1.90;1.80;;;;;;;;;;5002080;28;20069;-88
2024/02/25 09:28:35;;;;;;;3.08;1.23;;;;;;;;;;5004119;28;20486;-89
2024/02/25 09:31:02;;;;;;;4.25;1.58;;;;;;;;;;5004399;28;20054;-89
2024/02/25 09:33:34;;;;;;;1.75;1.65;;;;;;;;;;5001269;28;20058;-90
2024/02/25 09:36:01;;;;;;;1.48;1.38;;;;;;;;;;5000988;28;20070;-90
2024/02/25 09:38:29;;;;;;;1.25;1.15;;;;;;;;;;5001534;28;20042;-90
2024/02/25 09:41:00;;;;;;;1.50;1.40;;;;;;;;;;5001486;28;20145;-90
2024/02/25 09:43:29;;;;;;;1.00;1.00;;;;;;;;;;5003413;28;20065;-90
2024/02/25 09:45:57;;;;;;;1.40;1.27;;;;;;;;;;5016515;28;20117;-90
2024/02/25 09:48:25;;;;;;;3.47;1.00;;;;;;;;;;5001410;28;20050;-88
2024/02/25 09:50:53;;;;;;;1.88;1.77;;;;;;;;;;5000995;28;20400;-92
2024/02/25 09:53:21;;;;;;;1.73;1.63;;;;;;;;;;5003198;28;20434;-90
2024/02/25 09:55:49;;;;;;;2.20;1.10;;;;;;;;;;5003856;28;20078;-90
2024/02/25 09:58:17;;;;;;;0.82;0.82;;;;;;;;;;5003049;28;20108;-88
2024/02/25 10:00:44;;;;;;;2.75;0.88;;;;;;;;;;5001715;28;20483;-88
2024/02/25 10:03:13;;;;;;;1.08;0.90;;;;;;;;;;5001930;28;20149;-87
2024/02/25 10:05:40;;;;;;;0.70;0.70;;;;;;;;;;5004140;28;20046;-87
2024/02/25 10:08:13;;;;;;;1.98;0.73;;;;;;;;;;5003973;28;20076;-87
2024/02/25 10:10:41;;;;;;;0.63;0.63;;;;;;;;;;5007230;28;20129;-89
2024/02/25 10:13:09;;;;;;;1.02;0.80;;;;;;;;;;5008925;28;20451;-89
2024/02/25 10:15:39;;;;;;;1.95;1.13;;;;;;;;;;5001106;28;20046;-89
2024/02/25 10:18:06;;;;;;;3.75;1.40;;;;;;;;;;5001079;28;20054;-89
2024/02/25 10:20:34;;;;;;;1.38;1.30;;;;;;;;;;5004103;28;20072;-90
2024/02/25 10:23:07;;;;;;;0.80;0.80;;;;;;;;;;5003797;28;20057;-88
2024/02/25 10:25:35;;;;;;;;;;;;;;;;;;5017324;28;20470;-89
2024/02/25 10:28:11;;;;;;;0.60;0.60;;;;;;;;;;5008715;28;19921;-89
2024/02/25 10:30:39;;;;;;;0.90;0.90;;;;;;;;;;5017550;28;20113;-89
2024/02/25 10:33:15;;;;;;;0.90;0.90;;;;;;;;;;5009225;28;20054;-88
2024/02/25 10:35:44;;;;;;;0.73;0.73;;;;;;;;;;4999859;28;20077;-89
2024/02/25 10:38:13;;;;;;;0.80;0.80;;;;;;;;;;5006256;28;20046;-88
2024/02/25 10:40:43;;;;;;;1.35;1.13;;;;;;;;;;5003416;28;20462;-88
2024/02/25 10:43:12;;;;;;;0.82;0.82;;;;;;;;;;5004961;28;20097;-89
2024/02/25 10:45:43;;;;;;;1.10;0.88;;;;;;;;;;5007297;28;20092;-89
2024/02/25 10:48:11;;;;;;;0.88;0.88;;;;;;;;;;5005920;28;20046;-88
2024/02/25 10:50:38;;;;;;;0.70;0.70;;;;;;;;;;5008569;28;20062;-90
2024/02/25 10:53:06;;;;;;;0.65;0.65;;;;;;;;;;5007106;28;20046;-89
2024/02/25 10:55:34;;;;;;;0.45;0.45;;;;;;;;;;5011127;28;20060;-88
2024/02/25 10:58:02;;;;;;;0.75;0.75;;;;;;;;;;5004729;28;20487;-88
2024/02/25 11:00:29;;;;;;;1.10;0.70;;;;;;;;;;5006705;28;20050;-88
2024/02/25 11:02:57;;;;;;;0.73;0.73;;;;;;;;;;5014339;28;20137;-88
2024/02/25 11:05:24;;;;;;;1.80;0.90;;;;;;;;;;5006827;28;20050;-89
2024/02/25 11:07:51;;;;;;;0.90;0.90;;;;;;;;;;5006742;28;20049;-89
2024/02/25 11:10:22;;;;;;;0.63;0.63;;;;;;;;;;5004745;28;20050;-88
2024/02/25 11:12:51;;;;;;;0.90;0.90;;;;;;;;;;5003103;28;20057;-89
2024/02/25 11:15:27;;;;;;;0.60;0.60;;;;;;;;;;5005181;28;20502;-89
2024/02/25 11:17:55;;;;;;;1.00;0.98;;;;;;;;;;5006649;28;20066;-89
2024/02/25 11:20:25;;;;;;;0.98;0.90;;;;;;;;;;5006498;28;20469;-89
2024/02/25 11:22:55;;;;;;;1.58;0.95;;;;;;;;;;5014420;28;20053;-88
2024/02/25 11:25:26;;;;;;;1.45;0.68;;;;;;;;;;5006425;28;20062;-90
2024/02/25 11:27:57;;;;;;;0.50;0.50;;;;;;;;;;5007484;28;20495;-89
2024/02/25 11:30:44;;;;;;;0.93;0.82;;;;;;;;;;5013667;28;20108;-87
2024/02/25 11:33:23;;;;;;;0.80;0.80;;;;;;;;;;5005362;28;20069;-87
2024/02/25 11:35:51;;;;;;;1.17;0.80;;;;;;;;;;5002634;28;20074;-89
2024/02/25 11:38:22;;;;;;;1.13;0.90;;;;;;;;;;5009517;28;20442;-91
2024/02/25 11:40:52;;;;;;;1.13;1.00;;;;;;;;;;5002796;28;20046;-89
2024/02/25 11:43:20;;;;;;;0.70;0.70;;;;;;;;;;5005796;28;20085;-91
2024/02/25 11:45:47;;;;;;;0.75;0.70;;;;;;;;;;5008418;28;20046;-87
2024/02/25 11:48:15;;;;;;;1.27;1.13;;;;;;;;;;5011002;28;20050;-88
2024/02/25 11:50:43;;;;;;;0.85;0.85;;;;;;;;;;5003013;28;20491;-88
2024/02/25 11:53:10;;;;;;;0.80;0.80;;;;;;;;;;5011089;28;20050;-89
2024/02/25 11:55:37;;;;;;;0.63;0.60;;;;;;;;;;5007005;28;20564;-87
2024/02/25 11:58:05;;;;;;;0.82;0.80;;;;;;;;;;5006102;28;20112;-87
2024/02/25 12:00:32;;;;;;;1.17;0.80;;;;;;;;;;5002950;28;20050;-88
2024/02/25 12:03:01;;;;;;;0.90;0.90;;;;;;;;;;4998580;28;20050;-90
2024/02/25 12:05:28;;;;;;;1.38;0.90;;;;;;;;;;5014246;28;20077;-87
2024/02/25 12:07:56;;;;;;;1.63;0.80;;;;;;;;;;5005799;28;20046;-87
2024/02/25 12:10:24;;;;;;;1.08;0.77;;;;;;;;;;5003969;28;20404;-88
2024/02/25 12:12:52;;;;;;;0.70;0.70;;;;;;;;;;5011326;28;20050;-90
2024/02/25 12:15:20;;;;;;;0.85;0.60;;;;;;;;;;5020147;28;20050;-93
2024/02/25 12:17:47;;;;;;;0.77;0.77;;;;;;;;;;5006039;28;20422;-93
2024/02/25 12:20:17;;;;;;;0.70;0.70;;;;;;;;;;5004339;28;20058;-89
2024/02/25 12:22:45;;;;;;;0.85;0.82;;;;;;;;;;5004691;28;20062;-89
2024/02/25 12:25:19;;;;;;;0.68;0.68;;;;;;;;;;5000427;28;20050;-89
2024/02/25 12:27:48;;;;;;;0.82;0.55;;;;;;;;;;4996448;28;20502;-89
2024/02/25 12:30:16;;;;;;;0.50;0.50;;;;;;;;;;5018112;28;20054;-89
2024/02/25 12:32:43;;;;;;;1.00;0.70;;;;;;;;;;5005546;28;20056;-88
2024/02/25 12:35:10;;;;;;;0.93;0.65;;;;;;;;;;5005459;28;20061;-90
2024/02/25 12:37:38;;;;;;;0.57;0.57;;;;;;;;;;5008425;28;20054;-89
2024/02/25 12:40:08;;;;;;;1.27;0.60;;;;;;;;;;5009971;28;20046;-88
2024/02/25 12:42:40;;;;;;;0.82;0.50;;;;;;;;;;5005870;28;20057;-89
2024/02/25 12:45:07;;;;;;;0.47;0.47;;;;;;;;;;5005026;28;20056;-89
2024/02/25 12:47:35;;;;;;;0.93;0.40;;;;;;;;;;5009630;28;20081;-90
2024/02/25 12:50:02;;;;;;;0.50;0.50;;;;;;;;;;5001872;28;20109;-89
2024/02/25 12:52:30;;;;;;;0.50;0.50;;;;;;;;;;4993687;28;20126;-89
2024/02/25 12:54:57;;;;;;;0.55;0.55;;;;;;;;;;5012488;28;20050;-88
2024/02/25 12:57:24;;;;;;;0.57;0.57;;;;;;;;;;5004370;28;20089;-89
2024/02/25 12:59:52;;;;;;;0.52;0.43;;;;;;;;;;5004888;28;20056;-89
2024/02/25 13:02:19;;;;;;;1.38;0.50;;;;;;;;;;5002639;28;20076;-89
2024/02/25 13:04:46;;;;;;;0.60;0.60;;;;;;;;;;5001113;28;20137;-90
2024/02/25 13:07:14;;;;;;;0.90;0.63;;;;;;;;;;5002737;28;20050;-89
2024/02/25 13:09:41;;;;;;;0.50;0.50;;;;;;;;;;5007406;28;20061;-89
2024/02/25 13:12:08;;;;;;;0.30;0.30;;;;;;;;;;5009228;28;20050;-89
2024/02/25 13:14:36;;;;;;;0.47;0.47;;;;;;;;;;5002114;28;20058;-89
2024/02/25 13:17:03;;;;;;;0.43;0.43;;;;;;;;;;4997603;28;20070;-90
2024/02/25 13:19:31;;;;;;;0.70;0.28;;;;;;;;;;4994080;28;20050;-89
2024/02/25 13:21:58;;;;;;;0.57;0.57;;;;;;;;;;5004839;28;20054;-88
2024/02/25 13:24:26;;;;;;;0.98;0.45;;;;;;;;;;5002010;28;20567;-86
2024/02/25 13:26:53;;;;;;;0.60;0.35;;;;;;;;;;5001244;28;20141;-89
2024/02/25 13:29:21;;;;;;;0.32;0.28;;;;;;;;;;5005121;28;20142;-91
2024/02/25 13:31:48;;;;;;;0.30;0.30;;;;;;;;;;5004602;28;20481;-88
2024/02/25 13:34:15;;;;;;;0.57;0.57;;;;;;;;;;5002812;28;20049;-88
2024/02/25 13:36:43;;;;;;;1.33;0.40;;;;;;;;;;5000256;28;20060;-90
2024/02/25 13:39:11;;;;;;;0.68;0.40;;;;;;;;;;5001707;28;20046;-89
2024/02/25 13:41:39;;;;;;;3.88;0.40;;;;;;;;;;5004409;28;20100;-89
2024/02/25 13:44:08;;;;;;;0.30;0.30;;;;;;;;;;5009019;28;20050;-90
2024/02/25 13:46:35;;;;;;;0.25;0.25;;;;;;;;;;5000931;28;20054;-89
2024/02/25 13:49:02;;;;;;;0.63;0.35;;;;;;;;;;5000751;28;20058;-88
2024/02/25 13:51:31;;;;;;;0.75;0.30;;;;;;;;;;5000816;28;20078;-88
2024/02/25 13:53:58;;;;;;;1.00;0.30;;;;;;;;;;5000858;28;20050;-88
2024/02/25 13:56:25;;;;;;;0.30;0.30;;;;;;;;;;5003569;28;20410;-89
2024/02/25 13:58:52;;;;;;;0.47;0.20;;;;;;;;;;5008837;28;20054;-89
2024/02/25 14:01:20;;;;;;;0.30;0.30;;;;;;;;;;4999536;28;20073;-91
2024/02/25 14:03:47;;;;;;;0.32;0.32;;;;;;;;;;4994962;28;20141;-89
2024/02/25 14:06:14;;;;;;;0.20;0.20;;;;;;;;;;5016960;28;20050;-88
2024/02/25 14:08:42;;;;;;;0.85;0.30;;;;;;;;;;5007375;28;20133;-88
2024/02/25 14:11:10;;;;;;;0.20;0.20;;;;;;;;;;5001045;28;20054;-88
2024/02/25 14:13:37;;;;;;;0.50;0.20;;;;;;;;;;5005574;28;20122;-90
2024/02/25 14:16:04;;;;;;;0.50;0.50;;;;;;;;;;5006492;28;20046;-86
2024/02/25 14:18:32;;;;;;;1.10;0.35;;;;;;;;;;5015833;28;20486;-89
2024/02/25 14:20:59;;;;;;;0.50;0.40;;;;;;;;;;5008318;28;20092;-88
2024/02/25 14:23:26;;;;;;;1.15;0.60;;;;;;;;;;5007390;28;20053;-88
2024/02/25 14:25:56;;;;;;;0.50;0.50;;;;;;;;;;5007711;28;20135;-88
2024/02/25 14:28:24;;;;;;;0.50;0.50;;;;;;;;;;5004806;28;20046;-88
2024/02/25 14:30:52;;;;;;;2.80;2.63;;;;;;;;;;5003930;28;20054;-87
2024/02/25 14:33:20;;;;;;;0.30;0.30;;;;;;;;;;5006248;28;20161;-88
2024/02/25 14:35:48;;;;;;;0.30;0.30;;;;;;;;;;5007686;28;20050;-89
2024/02/25 14:38:17;;;;;;;0.68;0.68;;;;;;;;;;5006001;28;20422;-88
2024/02/25 14:40:44;;;;;;;1.63;0.43;;;;;;;;;;5004164;28;20046;-89
2024/02/25 14:43:13;;;;;;;1.58;1.48;;;;;;;;;;5006727;28;20112;-88
2024/02/25 14:45:40;;;;;;;1.35;0.30;;;;;;;;;;5007473;28;20049;-88
2024/02/25 14:48:08;;;;;;;0.47;0.20;;;;;;;;;;5006735;28;20109;-90